Craig G — WDB5332 — position and weather

sailwx.info

Track history (hours):
 
Tides and Currents Weather Stations Pressure Air Temp Water Temp Dewpoint Dewpoint Depression Visibility Wind Speed Wind Dir Waves Ship Positions

Craig G

More information available from US FCC via Universal Licensing System and Coast Guard Vessel Documentation Center.

Last reported at 2014-Aug-18 21:33 UTC. Time now 2014-Aug-21 08:20 UTC.
Position N 33°46' W 118°13'.

Length 28 m; draft 2 m.

Type: Other ship. MMSI: 366908460.

Date/timePositionNaut miles runAvg speedWind from/ knotsBaromVisibWave heightAir tempDewpointWater temp
2014-Aug-18 21:33N 33°46' W 118°13'1414.2
2014-Aug-18 20:33N 33°35' W 118°01'1815.5
2014-Aug-18 19:22N 33°22' W 117°46'1315.2
2014-Aug-18 18:33N 33°13' W 117°37'1515.4
2014-Aug-18 17:33N 32°59' W 117°29'1515.2
2014-Aug-18 16:33N 32°45' W 117°21'6 2.1
2014-Aug-18 13:33N 32°43' W 117°14'  
2014-Aug-15 21:30N 32°42' W 117°09'3 0.1
2014-Aug-14 02:33N 32°43' W 117°12'2 2.5
2014-Aug-14 01:33N 32°41' W 117°14'8 7.8
2014-Aug-14 00:33N 32°41' W 117°23'1717.5
2014-Aug-13 23:33N 32°47' W 117°43'44 3.6
2014-Aug-13 11:17N 33°01' W 118°33'0 0.0
2014-Aug-13 10:19N 33°01' W 118°33'0 0.0
2014-Aug-13 09:15N 33°01' W 118°33'0 0.0
2014-Aug-13 08:32N 33°01' W 118°33'0 0.0
2014-Aug-13 07:24N 33°01' W 118°33'0 0.0
2014-Aug-13 06:33N 33°01' W 118°33'0 0.0
2014-Aug-13 05:29N 33°01' W 118°33'0 0.0
2014-Aug-13 04:28N 33°01' W 118°33'0 0.0
2014-Aug-13 03:20N 33°00' W 118°33'0 0.0
2014-Aug-13 02:10N 33°00' W 118°33'0 0.0
2014-Aug-12 23:32N 33°00' W 118°33'3 2.7
2014-Aug-12 22:33N 33°01' W 118°30'4 3.6
2014-Aug-12 21:33N 33°01' W 118°26'6 6.4
2014-Aug-12 20:33N 33°00' W 118°33'0 0.2
2014-Aug-12 19:29N 33°00' W 118°33'0 0.0
2014-Aug-12 18:33N 33°00' W 118°33'0 0.0
2014-Aug-12 17:21N 33°00' W 118°33'0 0.0
2014-Aug-12 16:29N 33°00' W 118°33'0 0.0
2014-Aug-12 15:33N 33°00' W 118°33'0 0.0
2014-Aug-12 14:33N 33°00' W 118°33'0 0.0
2014-Aug-12 13:33N 33°00' W 118°33'0 0.0
2014-Aug-12 12:32N 33°00' W 118°33'0 0.0
2014-Aug-12 11:33N 33°00' W 118°33'0 0.0
2014-Aug-12 10:33N 33°00' W 118°33'0 0.0
2014-Aug-12 09:33N 33°00' W 118°33'0 0.0
2014-Aug-12 08:33N 33°00' W 118°33'0 0.0
2014-Aug-12 07:32N 33°00' W 118°33'0 0.0
2014-Aug-12 06:34N 33°00' W 118°33'0 0.0
2014-Aug-12 05:33N 33°00' W 118°33'0 0.0
2014-Aug-12 04:33N 33°00' W 118°33'0 0.0
2014-Aug-12 03:33N 33°00' W 118°33'0 0.0
2014-Aug-12 02:33N 33°00' W 118°33'0 0.0
2014-Aug-12 01:32N 33°00' W 118°33'0 0.0
2014-Aug-12 00:33N 33°01' W 118°33'0 0.0
2014-Aug-11 23:33N 33°01' W 118°33'0 0.0
2014-Aug-11 22:32N 33°01' W 118°33'0 0.0
2014-Aug-11 21:33N 33°01' W 118°33'0 0.0
2014-Aug-11 20:33N 33°01' W 118°33'3 2.9
2014-Aug-11 19:34N 33°00' W 118°30'3 2.9
2014-Aug-11 18:25N 33°01' W 118°26'1310.9
2014-Aug-11 17:11N 32°55' W 118°12'1117.4
2014-Aug-11 16:32N 32°51' W 117°60'1717.2
2014-Aug-11 15:33N 32°45' W 117°41'1717.2
2014-Aug-11 14:33N 32°40' W 117°21'  
Track history (hours):
 
Tides and Currents Weather Stations Pressure Air Temp Water Temp Dewpoint Dewpoint Depression Visibility Wind Speed Wind Dir Waves Ship Positions

Craig G

More information available from US FCC via Universal Licensing System and Coast Guard Vessel Documentation Center.

Last reported at 2014-Aug-18 21:33 UTC. Time now 2014-Aug-21 08:20 UTC.
Position N 33°46' W 118°13'.

Length 28 m; draft 2 m.

Type: Other ship. MMSI: 366908460.

Date/timePositionNaut miles runAvg speedWind from/ knotsBaromVisibWave heightAir tempDewpointWater temp
2014-Aug-18 21:33N 33°46' W 118°13'1414.2
2014-Aug-18 20:33N 33°35' W 118°01'1815.5
2014-Aug-18 19:22N 33°22' W 117°46'1315.2
2014-Aug-18 18:33N 33°13' W 117°37'1515.4
2014-Aug-18 17:33N 32°59' W 117°29'1515.2
2014-Aug-18 16:33N 32°45' W 117°21'6 2.1
2014-Aug-18 13:33N 32°43' W 117°14'  
2014-Aug-15 21:30N 32°42' W 117°09'3 0.1
2014-Aug-14 02:33N 32°43' W 117°12'2 2.5
2014-Aug-14 01:33N 32°41' W 117°14'8 7.8
2014-Aug-14 00:33N 32°41' W 117°23'1717.5
2014-Aug-13 23:33N 32°47' W 117°43'44 3.6
2014-Aug-13 11:17N 33°01' W 118°33'0 0.0
2014-Aug-13 10:19N 33°01' W 118°33'0 0.0
2014-Aug-13 09:15N 33°01' W 118°33'0 0.0
2014-Aug-13 08:32N 33°01' W 118°33'0 0.0
2014-Aug-13 07:24N 33°01' W 118°33'0 0.0
2014-Aug-13 06:33N 33°01' W 118°33'0 0.0
2014-Aug-13 05:29N 33°01' W 118°33'0 0.0
2014-Aug-13 04:28N 33°01' W 118°33'0 0.0
2014-Aug-13 03:20N 33°00' W 118°33'0 0.0
2014-Aug-13 02:10N 33°00' W 118°33'0 0.0
2014-Aug-12 23:32N 33°00' W 118°33'3 2.7
2014-Aug-12 22:33N 33°01' W 118°30'4 3.6
2014-Aug-12 21:33N 33°01' W 118°26'6 6.4
2014-Aug-12 20:33N 33°00' W 118°33'0 0.2
2014-Aug-12 19:29N 33°00' W 118°33'0 0.0
2014-Aug-12 18:33N 33°00' W 118°33'0 0.0
2014-Aug-12 17:21N 33°00' W 118°33'0 0.0
2014-Aug-12 16:29N 33°00' W 118°33'0 0.0
2014-Aug-12 15:33N 33°00' W 118°33'0 0.0
2014-Aug-12 14:33N 33°00' W 118°33'0 0.0
2014-Aug-12 13:33N 33°00' W 118°33'0 0.0
2014-Aug-12 12:32N 33°00' W 118°33'0 0.0
2014-Aug-12 11:33N 33°00' W 118°33'0 0.0
2014-Aug-12 10:33N 33°00' W 118°33'0 0.0
2014-Aug-12 09:33N 33°00' W 118°33'0 0.0
2014-Aug-12 08:33N 33°00' W 118°33'0 0.0
2014-Aug-12 07:32N 33°00' W 118°33'0 0.0
2014-Aug-12 06:34N 33°00' W 118°33'0 0.0
2014-Aug-12 05:33N 33°00' W 118°33'0 0.0
2014-Aug-12 04:33N 33°00' W 118°33'0 0.0
2014-Aug-12 03:33N 33°00' W 118°33'0 0.0
2014-Aug-12 02:33N 33°00' W 118°33'0 0.0
2014-Aug-12 01:32N 33°00' W 118°33'0 0.0
2014-Aug-12 00:33N 33°01' W 118°33'0 0.0
2014-Aug-11 23:33N 33°01' W 118°33'0 0.0
2014-Aug-11 22:32N 33°01' W 118°33'0 0.0
2014-Aug-11 21:33N 33°01' W 118°33'0 0.0
2014-Aug-11 20:33N 33°01' W 118°33'3 2.9
2014-Aug-11 19:34N 33°00' W 118°30'3 2.9
2014-Aug-11 18:25N 33°01' W 118°26'1310.9
2014-Aug-11 17:11N 32°55' W 118°12'1117.4
2014-Aug-11 16:32N 32°51' W 117°60'1717.2
2014-Aug-11 15:33N 32°45' W 117°41'1717.2
2014-Aug-11 14:33N 32°40' W 117°21'  

Dump ship's entire track history